createdAt,value
2019-01-12T00:00:25.097Z,7.72
2019-01-12T00:01:25.069Z,7.80
2019-01-12T00:02:25.053Z,7.74
2019-01-12T00:03:25.024Z,7.72
2019-01-12T00:04:25.000Z,7.74
2019-01-12T00:05:24.993Z,7.70
2019-01-12T00:06:24.963Z,7.70
2019-01-12T00:07:24.931Z,7.69
2019-01-12T00:08:24.921Z,7.72
2019-01-12T00:09:24.901Z,7.75
2019-01-12T00:10:24.865Z,7.70
2019-01-12T00:11:24.835Z,7.78
2019-01-12T00:12:24.823Z,7.78
2019-01-12T00:13:24.799Z,7.84
2019-01-12T00:14:24.766Z,7.78
2019-01-12T00:15:24.747Z,7.90
2019-01-12T00:16:24.720Z,7.87
2019-01-12T00:17:24.702Z,7.78
2019-01-12T00:18:24.673Z,7.75
2019-01-12T00:19:24.657Z,7.84
2019-01-12T00:20:24.627Z,7.80
2019-01-12T00:21:24.602Z,7.75
2019-01-12T00:22:24.595Z,7.77
2019-01-12T00:23:24.556Z,7.74
2019-01-12T00:24:31.352Z,7.83
2019-01-12T00:25:24.518Z,7.78
2019-01-12T00:26:24.484Z,7.75
2019-01-12T00:27:24.469Z,7.75
2019-01-12T00:28:24.447Z,7.78
2019-01-12T00:29:24.417Z,7.90
2019-01-12T00:30:24.391Z,7.75
2019-01-12T00:31:24.379Z,7.75
2019-01-12T00:32:24.344Z,7.75
2019-01-12T00:33:24.338Z,7.74
2019-01-12T00:34:24.297Z,7.77
2019-01-12T00:35:24.274Z,7.78
2019-01-12T00:36:24.250Z,7.84
2019-01-12T00:37:24.236Z,7.84
2019-01-12T00:38:24.206Z,7.69
2019-01-12T00:39:24.180Z,7.78
2019-01-12T00:40:24.207Z,7.77
2019-01-12T00:41:24.134Z,7.74
2019-01-12T00:42:24.116Z,7.84
2019-01-12T00:43:24.086Z,7.75
2019-01-12T00:44:24.064Z,7.77
2019-01-12T00:45:24.041Z,7.70
2019-01-12T00:46:24.028Z,7.74
2019-01-12T00:47:23.997Z,7.78
2019-01-12T00:48:23.971Z,7.77
2019-01-12T00:49:23.949Z,7.74
2019-01-12T00:50:23.938Z,7.74
2019-01-12T00:51:23.900Z,7.74
2019-01-12T00:52:23.880Z,7.72
2019-01-12T00:53:23.855Z,7.67
2019-01-12T00:54:23.833Z,7.75
2019-01-12T00:55:23.806Z,7.72
2019-01-12T00:56:23.788Z,7.72
2019-01-12T00:57:23.773Z,7.78
2019-01-12T00:58:23.738Z,7.83
2019-01-12T00:59:23.715Z,7.75
2019-01-12T01:00:23.741Z,7.74
2019-01-12T01:01:23.673Z,7.64
2019-01-12T01:02:23.651Z,7.69
2019-01-12T01:03:23.622Z,7.67
2019-01-12T01:04:25.019Z,7.64
2019-01-12T01:05:23.575Z,7.70
2019-01-12T01:06:23.550Z,7.61
2019-01-12T01:07:23.535Z,7.72
2019-01-12T01:08:23.507Z,7.70
2019-01-12T01:09:23.480Z,7.64
2019-01-12T01:10:23.457Z,7.64
2019-01-12T01:11:23.439Z,7.74
2019-01-12T01:12:23.411Z,7.66
2019-01-12T01:13:23.394Z,7.67
2019-01-12T01:14:23.362Z,7.66
2019-01-12T01:15:23.338Z,7.64
2019-01-12T01:16:23.322Z,7.67
2019-01-12T01:17:23.294Z,7.61
2019-01-12T01:18:23.269Z,7.72
2019-01-12T01:19:23.243Z,7.70
2019-01-12T01:20:23.221Z,7.62
2019-01-12T01:21:24.267Z,7.69
2019-01-12T01:22:23.189Z,7.64
2019-01-12T01:23:23.150Z,7.70
2019-01-12T01:24:23.134Z,7.62
2019-01-12T01:25:23.104Z,7.74
2019-01-12T01:26:23.085Z,7.75
2019-01-12T01:27:23.056Z,7.64
2019-01-12T01:28:23.035Z,7.80
2019-01-12T01:29:23.009Z,7.66
2019-01-12T01:30:22.987Z,7.74
2019-01-12T01:31:22.963Z,7.78
2019-01-12T01:32:22.962Z,7.66
2019-01-12T01:33:27.892Z,7.75
2019-01-12T01:34:22.894Z,7.80
2019-01-12T01:35:22.869Z,7.72
2019-01-12T01:36:22.847Z,7.64
2019-01-12T01:37:22.822Z,7.75
2019-01-12T01:38:22.798Z,7.72
2019-01-12T01:39:22.775Z,7.77
2019-01-12T01:40:22.752Z,7.64
2019-01-12T01:41:22.727Z,7.74
2019-01-12T01:42:22.706Z,7.72
2019-01-12T01:43:22.679Z,7.75
2019-01-12T01:44:22.658Z,7.66
2019-01-12T01:45:22.642Z,7.59
2019-01-12T01:46:22.609Z,7.74
2019-01-12T01:47:22.587Z,7.72
2019-01-12T01:48:22.562Z,7.77
2019-01-12T01:49:22.551Z,7.66
2019-01-12T01:50:22.516Z,7.61
2019-01-12T01:51:22.491Z,7.66
2019-01-12T01:52:22.471Z,7.69
2019-01-12T01:53:22.446Z,7.69
2019-01-12T01:54:22.430Z,7.64
2019-01-12T01:55:22.399Z,7.67
2019-01-12T01:56:22.378Z,7.64
2019-01-12T01:57:22.351Z,7.66
2019-01-12T01:58:22.436Z,7.59
2019-01-12T01:59:22.313Z,7.64
2019-01-12T02:00:22.280Z,7.67
2019-01-12T02:01:22.262Z,7.67
2019-01-12T02:02:22.236Z,7.61
2019-01-12T02:03:22.214Z,7.69
2019-01-12T02:04:22.188Z,7.67
2019-01-12T02:05:22.163Z,7.62
2019-01-12T02:06:22.141Z,7.64
2019-01-12T02:07:22.121Z,7.47
2019-01-12T02:08:22.091Z,7.53
2019-01-12T02:09:22.080Z,7.47
2019-01-12T02:10:22.053Z,7.43
2019-01-12T02:11:22.022Z,7.44
2019-01-12T02:12:22.001Z,7.46
2019-01-12T02:13:21.983Z,7.48
2019-01-12T02:14:21.959Z,7.53
2019-01-12T02:15:21.932Z,7.61
2019-01-12T02:16:21.920Z,7.55
2019-01-12T02:17:21.890Z,7.53
2019-01-12T02:18:21.858Z,7.55
2019-01-12T02:19:21.833Z,7.58
2019-01-12T02:20:23.171Z,7.59
2019-01-12T02:21:21.787Z,7.55
2019-01-12T02:22:21.763Z,7.51
2019-01-12T02:23:21.738Z,7.58
2019-01-12T02:24:21.715Z,7.51
2019-01-12T02:25:21.695Z,7.56
2019-01-12T02:26:21.676Z,7.55
2019-01-12T02:27:21.650Z,7.46
2019-01-12T02:28:21.619Z,7.47
2019-01-12T02:29:21.606Z,7.48
2019-01-12T02:30:21.580Z,7.50
2019-01-12T02:31:21.552Z,7.47
2019-01-12T02:32:21.527Z,7.41
2019-01-12T02:33:21.505Z,7.47
2019-01-12T02:34:21.496Z,7.47
2019-01-12T02:35:21.457Z,7.46
2019-01-12T02:36:21.434Z,7.50
2019-01-12T02:37:21.420Z,7.41
2019-01-12T02:38:21.398Z,7.43
2019-01-12T02:39:21.399Z,7.47
2019-01-12T02:40:21.362Z,7.39
2019-01-12T02:41:21.325Z,7.46
2019-01-12T02:42:21.293Z,7.40
2019-01-12T02:43:21.267Z,7.36
2019-01-12T02:44:21.243Z,7.47
2019-01-12T02:45:21.221Z,7.36
2019-01-12T02:46:21.195Z,7.40
2019-01-12T02:47:21.173Z,7.29
2019-01-12T02:48:21.151Z,7.32
2019-01-12T02:49:21.125Z,7.44
2019-01-12T02:50:21.105Z,7.47
2019-01-12T02:51:21.078Z,7.46
2019-01-12T02:52:21.055Z,7.43
2019-01-12T02:53:21.030Z,7.43
2019-01-12T02:54:21.008Z,7.50
2019-01-12T02:55:20.990Z,7.41
2019-01-12T02:56:20.960Z,7.41
2019-01-12T02:57:20.944Z,7.47
2019-01-12T02:58:20.913Z,7.33
2019-01-12T02:59:20.887Z,7.44
2019-01-12T03:00:20.863Z,7.36
2019-01-12T03:01:20.841Z,7.29
2019-01-12T03:02:20.818Z,7.36
2019-01-12T03:03:20.792Z,7.36
2019-01-12T03:04:20.789Z,7.32
2019-01-12T03:05:20.746Z,7.33
2019-01-12T03:06:20.722Z,7.32
2019-01-12T03:07:20.782Z,7.28
2019-01-12T03:08:20.674Z,7.47
2019-01-12T03:09:20.653Z,7.36
2019-01-12T03:10:20.627Z,7.32
2019-01-12T03:11:20.610Z,7.39
2019-01-12T03:12:20.583Z,7.31
2019-01-12T03:13:20.558Z,7.32
2019-01-12T03:14:20.533Z,7.46
2019-01-12T03:15:20.510Z,7.33
2019-01-12T03:16:20.487Z,7.32
2019-01-12T03:17:20.464Z,7.36
2019-01-12T03:18:20.441Z,7.50
2019-01-12T03:19:20.418Z,7.50
2019-01-12T03:20:20.396Z,7.48
2019-01-12T03:21:20.368Z,7.46
2019-01-12T03:22:20.342Z,7.46
2019-01-12T03:23:20.321Z,7.47
2019-01-12T03:24:20.295Z,7.36
2019-01-12T03:25:20.292Z,7.47
2019-01-12T03:26:20.252Z,7.40
2019-01-12T03:27:20.224Z,7.36
2019-01-12T03:28:20.224Z,7.36
2019-01-12T03:29:20.180Z,7.36
2019-01-12T03:30:20.192Z,7.40
2019-01-12T03:31:20.169Z,7.25
2019-01-12T03:32:20.122Z,7.26
2019-01-12T03:33:20.090Z,7.32
2019-01-12T03:34:20.056Z,7.31
2019-01-12T03:35:20.047Z,7.26
2019-01-12T03:36:20.009Z,7.28
2019-01-12T03:37:19.992Z,7.23
2019-01-12T03:38:19.964Z,7.32
2019-01-12T03:39:19.939Z,7.33
2019-01-12T03:40:19.917Z,7.33
2019-01-12T03:41:19.889Z,7.28
2019-01-12T03:42:19.875Z,7.23
2019-01-12T03:43:19.847Z,7.29
2019-01-12T03:44:19.819Z,7.21
2019-01-12T03:45:19.802Z,7.28
2019-01-12T03:46:19.869Z,7.22
2019-01-12T03:47:19.758Z,7.25
2019-01-12T03:48:19.733Z,7.29
2019-01-12T03:49:19.707Z,7.28
2019-01-12T03:50:19.695Z,7.25
2019-01-12T03:51:19.652Z,7.15
2019-01-12T03:52:19.636Z,7.19
2019-01-12T03:53:19.603Z,7.19
2019-01-12T03:54:19.585Z,7.19
2019-01-12T03:55:25.483Z,7.15
2019-01-12T03:56:19.530Z,7.25
2019-01-12T03:57:19.506Z,7.23
2019-01-12T03:58:19.489Z,7.15
2019-01-12T03:59:19.460Z,7.19
2019-01-12T04:00:19.436Z,7.18
2019-01-12T04:01:19.411Z,7.14
2019-01-12T04:02:19.402Z,7.26
2019-01-12T04:03:19.366Z,7.18
2019-01-12T04:04:19.343Z,7.18
2019-01-12T04:05:19.338Z,7.15
2019-01-12T04:06:19.293Z,7.18
2019-01-12T04:07:19.268Z,7.15
2019-01-12T04:08:19.250Z,7.15
2019-01-12T04:09:19.221Z,7.14
2019-01-12T04:10:19.206Z,7.21
2019-01-12T04:11:19.179Z,7.26
2019-01-12T04:12:19.148Z,7.28
2019-01-12T04:13:19.124Z,7.22
2019-01-12T04:14:19.170Z,7.26
2019-01-12T04:15:19.077Z,7.25
2019-01-12T04:16:19.052Z,7.25
2019-01-12T04:17:19.032Z,7.22
2019-01-12T04:18:19.006Z,7.26
2019-01-12T04:19:18.981Z,7.14
2019-01-12T04:20:18.968Z,7.21
2019-01-12T04:21:18.933Z,7.15
2019-01-12T04:22:18.912Z,7.19
2019-01-12T04:23:18.891Z,7.22
2019-01-12T04:24:18.858Z,7.25
2019-01-12T04:25:18.836Z,7.19
2019-01-12T04:26:18.819Z,7.21
2019-01-12T04:27:18.787Z,7.18
2019-01-12T04:28:18.775Z,7.11
2019-01-12T04:29:18.739Z,7.18
2019-01-12T04:30:18.713Z,7.19
2019-01-12T04:31:18.691Z,7.21
2019-01-12T04:32:18.677Z,7.18
2019-01-12T04:33:18.644Z,7.26
2019-01-12T04:34:18.621Z,7.21
2019-01-12T04:35:18.593Z,7.15
2019-01-12T04:36:18.569Z,7.22
2019-01-12T04:37:18.551Z,7.28
2019-01-12T04:38:18.524Z,7.22
2019-01-12T04:39:18.497Z,7.21
2019-01-12T04:40:18.474Z,7.21
2019-01-12T04:41:18.458Z,7.28
2019-01-12T04:42:18.432Z,7.33
2019-01-12T04:43:18.415Z,7.29
2019-01-12T04:44:18.647Z,7.26
2019-01-12T04:45:18.357Z,7.23
2019-01-12T04:46:18.332Z,7.22
2019-01-12T04:47:18.382Z,7.22
2019-01-12T04:48:19.664Z,7.21
2019-01-12T04:49:18.258Z,7.19
2019-01-12T04:50:18.245Z,7.18
2019-01-12T04:51:18.211Z,7.26
2019-01-12T04:52:18.190Z,7.18
2019-01-12T04:53:18.174Z,7.18
2019-01-12T04:54:18.139Z,7.22
2019-01-12T04:55:18.116Z,7.28
2019-01-12T04:56:18.094Z,7.18
2019-01-12T04:57:18.067Z,7.11
2019-01-12T04:58:18.044Z,7.10
2019-01-12T04:59:18.020Z,7.15
2019-01-12T05:00:17.996Z,7.26
2019-01-12T05:01:17.980Z,7.19
2019-01-12T05:02:17.949Z,7.28
2019-01-12T05:03:17.924Z,7.26
2019-01-12T05:04:17.900Z,7.15
2019-01-12T05:05:17.878Z,7.25
2019-01-12T05:06:17.872Z,7.15
2019-01-12T05:07:17.830Z,7.15
2019-01-12T05:08:17.806Z,7.08
2019-01-12T05:09:17.782Z,7.14
2019-01-12T05:10:17.760Z,7.13
2019-01-12T05:11:17.733Z,7.10
2019-01-12T05:12:17.710Z,7.10
2019-01-12T05:13:17.685Z,7.11
2019-01-12T05:14:17.666Z,7.05
2019-01-12T05:15:17.640Z,7.13
2019-01-12T05:16:17.627Z,7.14
2019-01-12T05:17:17.593Z,7.10
2019-01-12T05:18:17.568Z,7.04
2019-01-12T05:19:17.541Z,7.08
2019-01-12T05:20:17.527Z,7.07
2019-01-12T05:21:17.493Z,7.13
2019-01-12T05:22:17.471Z,7.04
2019-01-12T05:23:17.444Z,7.04
2019-01-12T05:24:17.436Z,7.11
2019-01-12T05:25:17.396Z,7.08
2019-01-12T05:26:17.444Z,7.13
2019-01-12T05:27:17.363Z,7.13
2019-01-12T05:28:17.331Z,7.10
2019-01-12T05:29:17.300Z,7.13
2019-01-12T05:30:17.356Z,7.11
2019-01-12T05:31:17.252Z,7.15
2019-01-12T05:32:17.228Z,7.07
2019-01-12T05:33:17.215Z,7.15
2019-01-12T05:34:17.179Z,7.10
2019-01-12T05:35:17.155Z,7.14
2019-01-12T05:36:17.133Z,7.14
2019-01-12T05:37:17.111Z,7.05
2019-01-12T05:38:17.082Z,7.10
2019-01-12T05:39:17.071Z,7.05
2019-01-12T05:40:17.036Z,7.05
2019-01-12T05:41:17.012Z,7.10
2019-01-12T05:42:16.987Z,7.03
2019-01-12T05:43:16.963Z,7.05
2019-01-12T05:44:16.947Z,7.08
2019-01-12T05:45:16.915Z,7.14
2019-01-12T05:46:16.891Z,7.11
2019-01-12T05:47:16.870Z,7.10
2019-01-12T05:48:16.843Z,7.07
2019-01-12T05:49:16.819Z,7.07
2019-01-12T05:50:16.800Z,7.18
2019-01-12T05:51:16.769Z,7.13
2019-01-12T05:52:16.744Z,7.11
2019-01-12T05:53:16.735Z,7.26
2019-01-12T05:54:16.697Z,7.11
2019-01-12T05:55:16.673Z,7.11
2019-01-12T05:56:16.658Z,7.11
2019-01-12T05:57:16.626Z,7.08
2019-01-12T05:58:16.600Z,7.11
2019-01-12T05:59:16.579Z,7.07
2019-01-12T06:00:16.568Z,7.13
2019-01-12T06:01:16.526Z,7.05
2019-01-12T06:02:16.503Z,7.10
2019-01-12T06:03:16.480Z,7.11
2019-01-12T06:04:16.460Z,7.10
2019-01-12T06:05:16.430Z,7.01
2019-01-12T06:06:16.407Z,6.96
2019-01-12T06:07:16.387Z,7.07
2019-01-12T06:08:16.358Z,7.00
2019-01-12T06:09:16.333Z,7.08
2019-01-12T06:10:16.310Z,6.96
2019-01-12T06:11:16.291Z,6.87
2019-01-12T06:12:16.261Z,6.95
2019-01-12T06:13:16.239Z,6.95
2019-01-12T06:14:16.213Z,7.01
2019-01-12T06:15:16.187Z,6.90
2019-01-12T06:16:16.163Z,6.90
2019-01-12T06:17:16.240Z,6.93
2019-01-12T06:18:16.115Z,6.92
2019-01-12T06:19:16.090Z,6.92
2019-01-12T06:20:16.066Z,6.95
2019-01-12T06:21:16.049Z,6.96
2019-01-12T06:22:16.017Z,6.95
2019-01-12T06:23:15.991Z,7.00
2019-01-12T06:24:15.978Z,6.90
2019-01-12T06:25:15.950Z,6.97
2019-01-12T06:26:15.924Z,6.96
2019-01-12T06:27:15.900Z,6.97
2019-01-12T06:28:15.893Z,6.92
2019-01-12T06:29:15.857Z,6.92
2019-01-12T06:30:15.825Z,6.92
2019-01-12T06:31:15.808Z,6.95
2019-01-12T06:32:15.777Z,7.00
2019-01-12T06:33:15.752Z,7.00
2019-01-12T06:34:15.725Z,6.97
2019-01-12T06:35:15.702Z,7.00
2019-01-12T06:36:15.677Z,6.95
2019-01-12T06:37:15.654Z,6.95
2019-01-12T06:38:15.644Z,6.92
2019-01-12T06:39:15.612Z,6.97
2019-01-12T06:40:15.581Z,6.95
2019-01-12T06:41:15.558Z,6.92
2019-01-12T06:42:15.538Z,6.89
2019-01-12T06:43:15.507Z,6.93
2019-01-12T06:44:15.483Z,6.93
2019-01-12T06:45:15.460Z,6.96
2019-01-12T06:46:15.436Z,6.90
2019-01-12T06:47:15.409Z,6.86
2019-01-12T06:48:15.392Z,6.96
2019-01-12T06:49:15.362Z,6.95
2019-01-12T06:50:15.337Z,6.96
2019-01-12T06:51:15.315Z,6.89
2019-01-12T06:52:15.288Z,6.95
2019-01-12T06:53:15.264Z,6.97
2019-01-12T06:54:15.247Z,6.87
2019-01-12T06:55:15.221Z,6.93
2019-01-12T06:56:15.190Z,6.90
2019-01-12T06:57:15.184Z,6.95
2019-01-12T06:58:15.156Z,7.00
2019-01-12T06:59:15.119Z,6.95
2019-01-12T07:00:15.094Z,6.96
2019-01-12T07:01:15.079Z,6.95
2019-01-12T07:02:15.046Z,6.95
2019-01-12T07:03:15.021Z,7.00
2019-01-12T07:04:15.001Z,6.89
2019-01-12T07:05:14.972Z,7.01
2019-01-12T07:06:14.951Z,6.90
2019-01-12T07:07:14.925Z,6.92
2019-01-12T07:08:14.900Z,6.83
2019-01-12T07:09:14.885Z,6.93
2019-01-12T07:10:14.853Z,6.86
2019-01-12T07:11:14.828Z,6.90
2019-01-12T07:12:14.811Z,6.86
2019-01-12T07:13:14.788Z,6.96
2019-01-12T07:14:14.755Z,6.87
2019-01-12T07:15:14.832Z,6.83
2019-01-12T07:16:14.705Z,6.80
2019-01-12T07:17:14.683Z,6.85
2019-01-12T07:18:14.659Z,6.75
2019-01-12T07:19:14.633Z,6.83
2019-01-12T07:20:14.610Z,6.78
2019-01-12T07:21:14.597Z,6.86
2019-01-12T07:22:14.561Z,6.83
2019-01-12T07:23:14.548Z,6.85
2019-01-12T07:24:14.518Z,6.85
2019-01-12T07:25:14.487Z,6.87
2019-01-12T07:26:17.639Z,6.83
2019-01-12T07:27:14.440Z,6.83
2019-01-12T07:28:14.422Z,6.89
2019-01-12T07:29:14.395Z,6.89
2019-01-12T07:30:14.492Z,6.89
2019-01-12T07:31:14.348Z,6.82
2019-01-12T07:32:14.323Z,6.80
2019-01-12T07:33:14.299Z,6.83
2019-01-12T07:34:14.270Z,6.85
2019-01-12T07:35:14.264Z,6.93
2019-01-12T07:36:14.225Z,6.92
2019-01-12T07:37:14.209Z,6.87
2019-01-12T07:38:14.177Z,6.96
2019-01-12T07:39:14.153Z,6.95
2019-01-12T07:40:14.132Z,6.93
2019-01-12T07:41:14.107Z,6.95
2019-01-12T07:42:14.085Z,6.95
2019-01-12T07:43:14.050Z,7.00
2019-01-12T07:44:14.030Z,6.95
2019-01-12T07:45:14.002Z,6.89
2019-01-12T07:46:14.009Z,6.89
2019-01-12T07:47:13.958Z,6.87
2019-01-12T07:48:13.929Z,6.96
2019-01-12T07:49:13.908Z,6.93
2019-01-12T07:50:13.881Z,6.87
2019-01-12T07:51:13.956Z,6.93
2019-01-12T07:52:13.838Z,6.97
2019-01-12T07:53:13.810Z,6.92
2019-01-12T07:54:13.883Z,6.90
2019-01-12T07:55:13.760Z,6.86
2019-01-12T07:56:13.742Z,6.95
2019-01-12T07:57:13.711Z,6.97
2019-01-12T07:58:13.689Z,7.05
2019-01-12T07:59:13.662Z,6.96
2019-01-12T08:00:13.640Z,6.93
2019-01-12T08:01:13.619Z,6.92
2019-01-12T08:02:13.592Z,6.97
2019-01-12T08:03:13.565Z,6.95
2019-01-12T08:04:13.545Z,6.93
2019-01-12T08:05:13.539Z,6.95
2019-01-12T08:06:13.494Z,6.87
2019-01-12T08:07:13.476Z,6.95
2019-01-12T08:08:13.445Z,7.05
2019-01-12T08:09:13.425Z,6.97
2019-01-12T08:10:13.396Z,7.04
2019-01-12T08:11:13.371Z,6.92
2019-01-12T08:12:13.356Z,6.96
2019-01-12T08:13:13.334Z,7.01
2019-01-12T08:14:13.306Z,6.97
2019-01-12T08:15:13.289Z,7.00
2019-01-12T08:16:13.256Z,7.03
2019-01-12T08:17:13.226Z,6.93
2019-01-12T08:18:13.203Z,7.00
2019-01-12T08:19:13.178Z,7.00
2019-01-12T08:20:13.161Z,6.96
2019-01-12T08:21:13.135Z,7.04
2019-01-12T08:22:13.105Z,7.05
2019-01-12T08:23:13.082Z,7.07
2019-01-12T08:24:13.063Z,7.13
2019-01-12T08:25:13.034Z,7.05
2019-01-12T08:26:13.044Z,7.14
2019-01-12T08:27:12.997Z,7.14
2019-01-12T08:28:12.961Z,7.05
2019-01-12T08:29:12.951Z,7.07
2019-01-12T08:30:12.920Z,7.14
2019-01-12T08:31:12.890Z,7.13
2019-01-12T08:32:12.862Z,7.11
2019-01-12T08:33:12.900Z,7.11
2019-01-12T08:34:12.816Z,7.08
2019-01-12T08:35:12.795Z,6.96
2019-01-12T08:36:12.768Z,6.95
2019-01-12T08:37:12.804Z,6.95
2019-01-12T08:38:12.721Z,6.93
2019-01-12T08:39:12.711Z,6.97
2019-01-12T08:40:12.674Z,6.90
2019-01-12T08:41:12.654Z,7.01
2019-01-12T08:42:12.632Z,6.93
2019-01-12T08:43:12.602Z,7.00
2019-01-12T08:44:12.575Z,6.95
2019-01-12T08:45:12.565Z,6.87
2019-01-12T08:46:12.529Z,6.97
2019-01-12T08:47:12.512Z,6.93
2019-01-12T08:48:12.487Z,7.00
2019-01-12T08:49:12.455Z,6.97
2019-01-12T08:50:12.431Z,7.04
2019-01-12T08:51:12.422Z,6.93
2019-01-12T08:52:12.382Z,7.03
2019-01-12T08:53:12.380Z,7.04
2019-01-12T08:54:12.334Z,7.03
2019-01-12T08:55:12.311Z,7.00
2019-01-12T08:56:12.287Z,7.08
2019-01-12T08:57:12.263Z,7.07
2019-01-12T08:58:12.238Z,7.07
2019-01-12T08:59:12.228Z,7.05
2019-01-12T09:00:12.191Z,7.11
2019-01-12T09:01:12.165Z,7.04
2019-01-12T09:02:12.158Z,7.03
2019-01-12T09:03:12.123Z,7.07
2019-01-12T09:04:12.091Z,7.08
2019-01-12T09:05:12.074Z,7.05
2019-01-12T09:06:12.056Z,7.08
2019-01-12T09:07:12.020Z,7.10
2019-01-12T09:08:11.998Z,7.08
2019-01-12T09:09:11.977Z,7.04
2019-01-12T09:10:11.951Z,7.05
2019-01-12T09:11:11.941Z,7.11
2019-01-12T09:12:11.899Z,7.07
2019-01-12T09:13:11.904Z,7.25
2019-01-12T09:14:11.862Z,7.13
2019-01-12T09:15:11.827Z,7.13
2019-01-12T09:16:11.806Z,7.13
2019-01-12T09:17:11.787Z,7.19
2019-01-12T09:18:11.758Z,7.15
2019-01-12T09:19:11.733Z,7.25
2019-01-12T09:20:11.708Z,7.26
2019-01-12T09:21:11.689Z,7.11
2019-01-12T09:22:11.669Z,7.14
2019-01-12T09:23:11.634Z,7.07
2019-01-12T09:24:11.611Z,7.07
2019-01-12T09:25:11.588Z,7.04
2019-01-12T09:26:11.586Z,7.11
2019-01-12T09:27:11.539Z,7.11
2019-01-12T09:28:11.705Z,7.07
2019-01-12T09:29:11.492Z,7.04
2019-01-12T09:30:11.484Z,7.07
2019-01-12T09:31:11.506Z,7.04
2019-01-12T09:32:11.418Z,7.03
2019-01-12T09:33:11.395Z,7.05
2019-01-12T09:34:11.371Z,7.08
2019-01-12T09:35:11.346Z,7.05
2019-01-12T09:36:11.340Z,7.00
2019-01-12T09:37:11.298Z,7.10
2019-01-12T09:38:11.285Z,7.07
2019-01-12T09:39:11.248Z,7.01
2019-01-12T09:40:11.238Z,7.03
2019-01-12T09:41:11.201Z,7.07
2019-01-12T09:42:11.179Z,7.13
2019-01-12T09:43:11.187Z,7.05
2019-01-12T09:44:11.129Z,7.04
2019-01-12T09:45:11.117Z,6.97
2019-01-12T09:46:11.089Z,7.00
2019-01-12T09:47:11.056Z,7.01
2019-01-12T09:48:11.034Z,7.15
2019-01-12T09:49:11.008Z,7.07
2019-01-12T09:50:11.004Z,7.04
2019-01-12T09:51:10.968Z,6.96
2019-01-12T09:52:10.937Z,7.04
2019-01-12T09:53:10.918Z,6.95
2019-01-12T09:54:10.891Z,7.00
2019-01-12T09:55:10.865Z,6.96
2019-01-12T09:56:10.852Z,7.00
2019-01-12T09:57:10.827Z,7.04
2019-01-12T09:58:10.815Z,7.00
2019-01-12T09:59:10.769Z,6.96
2019-01-12T10:00:10.751Z,7.01
2019-01-12T10:01:10.729Z,7.11
2019-01-12T10:02:10.705Z,7.07
2019-01-12T10:03:10.671Z,7.04
2019-01-12T10:04:10.729Z,7.05
2019-01-12T10:05:10.628Z,7.08
2019-01-12T10:06:10.600Z,7.07
2019-01-12T10:07:10.618Z,7.08
2019-01-12T10:08:10.554Z,7.07
2019-01-12T10:09:10.529Z,7.05
2019-01-12T10:10:10.503Z,7.01
2019-01-12T10:11:10.483Z,7.05
2019-01-12T10:12:10.457Z,7.01
2019-01-12T10:13:10.436Z,6.96
2019-01-12T10:14:10.438Z,6.90
2019-01-12T10:15:10.385Z,6.97
2019-01-12T10:16:10.387Z,7.11
2019-01-12T10:17:10.343Z,7.11
2019-01-12T10:18:10.318Z,7.04
2019-01-12T10:19:10.296Z,7.00
2019-01-12T10:20:10.270Z,6.95
2019-01-12T10:21:10.239Z,6.96
2019-01-12T10:22:10.224Z,7.05
2019-01-12T10:23:10.200Z,7.07
2019-01-12T10:24:10.185Z,7.08
2019-01-12T10:25:10.144Z,7.04
2019-01-12T10:26:10.127Z,7.00
2019-01-12T10:27:10.096Z,7.03
2019-01-12T10:28:10.073Z,6.96
2019-01-12T10:29:11.542Z,6.93
2019-01-12T10:30:10.036Z,6.97
2019-01-12T10:31:10.002Z,6.97
2019-01-12T10:32:09.979Z,6.96
2019-01-12T10:33:09.958Z,7.01
2019-01-12T10:34:09.928Z,7.03
2019-01-12T10:35:09.904Z,6.97
2019-01-12T10:36:09.882Z,6.92
2019-01-12T10:37:09.864Z,6.97
2019-01-12T10:38:09.847Z,7.01
2019-01-12T10:39:09.813Z,7.01
2019-01-12T10:40:09.785Z,6.95
2019-01-12T10:41:09.774Z,7.01
2019-01-12T10:42:09.742Z,6.97
2019-01-12T10:43:09.721Z,6.97
2019-01-12T10:44:09.688Z,6.97
2019-01-12T10:45:09.675Z,6.96
2019-01-12T10:46:09.654Z,6.92
2019-01-12T10:47:09.625Z,6.92
2019-01-12T10:48:09.597Z,6.86
2019-01-12T10:49:09.576Z,6.92
2019-01-12T10:50:09.547Z,6.90
2019-01-12T10:51:09.523Z,6.95
2019-01-12T10:52:09.501Z,6.95
2019-01-12T10:53:09.484Z,6.93
2019-01-12T10:54:09.450Z,6.97
2019-01-12T10:55:09.429Z,7.01
2019-01-12T10:56:09.401Z,7.00
2019-01-12T10:57:09.375Z,6.97
2019-01-12T10:58:09.356Z,6.92
2019-01-12T10:59:09.331Z,6.96
2019-01-12T11:00:09.304Z,6.96
2019-01-12T11:01:09.286Z,7.01
2019-01-12T11:02:09.336Z,7.00
2019-01-12T11:03:09.237Z,6.96
2019-01-12T11:04:09.209Z,7.00
2019-01-12T11:05:09.232Z,7.01
2019-01-12T11:06:09.176Z,7.00
2019-01-12T11:07:09.138Z,6.95
2019-01-12T11:08:09.122Z,7.04
2019-01-12T11:09:09.095Z,7.01
2019-01-12T11:10:09.065Z,7.01
2019-01-12T11:11:09.038Z,6.92
2019-01-12T11:12:09.018Z,7.00
2019-01-12T11:13:08.995Z,6.97
2019-01-12T11:14:08.967Z,6.93
2019-01-12T11:15:08.948Z,6.92
2019-01-12T11:16:08.923Z,6.97
2019-01-12T11:17:08.897Z,6.95
2019-01-12T11:18:08.871Z,6.96
2019-01-12T11:19:08.846Z,7.13
2019-01-12T11:20:08.839Z,7.21
2019-01-12T11:21:08.800Z,7.18
2019-01-12T11:22:08.776Z,7.15
2019-01-12T11:23:08.750Z,7.18
2019-01-12T11:24:08.730Z,7.31
2019-01-12T11:25:08.717Z,7.31
2019-01-12T11:26:08.700Z,7.21
2019-01-12T11:27:12.234Z,7.29
2019-01-12T11:28:08.634Z,7.23
2019-01-12T11:29:08.607Z,7.22
2019-01-12T11:30:08.584Z,7.23
2019-01-12T11:31:08.567Z,7.15
2019-01-12T11:32:08.546Z,7.28
2019-01-12T11:33:08.510Z,7.25
2019-01-12T11:34:08.496Z,7.23
2019-01-12T11:35:08.509Z,7.31
2019-01-12T11:36:08.440Z,7.31
2019-01-12T11:37:08.415Z,7.31
2019-01-12T11:38:08.397Z,7.28
2019-01-12T11:39:08.381Z,7.33
2019-01-12T11:40:08.346Z,7.26
2019-01-12T11:41:08.324Z,7.29
2019-01-12T11:42:08.298Z,7.23
2019-01-12T11:43:08.272Z,7.13
2019-01-12T11:44:08.248Z,7.14
2019-01-12T11:45:08.236Z,7.22
2019-01-12T11:46:08.218Z,7.18
2019-01-12T11:47:08.183Z,7.14
2019-01-12T11:48:08.164Z,7.14
2019-01-12T11:49:08.127Z,7.25
2019-01-12T11:50:08.122Z,7.28
2019-01-12T11:51:08.084Z,7.26
2019-01-12T11:52:08.059Z,7.25
2019-01-12T11:53:08.034Z,7.28
2019-01-12T11:54:08.007Z,7.25
2019-01-12T11:55:07.983Z,7.28
2019-01-12T11:56:07.959Z,7.26
2019-01-12T11:57:07.944Z,7.22
2019-01-12T11:58:07.917Z,7.22
2019-01-12T11:59:07.887Z,7.18
2019-01-12T12:00:07.864Z,7.29
2019-01-12T12:01:07.841Z,7.22
2019-01-12T12:02:07.823Z,7.18
2019-01-12T12:03:07.797Z,7.22
2019-01-12T12:04:07.772Z,7.22
2019-01-12T12:05:07.753Z,7.21
2019-01-12T12:06:07.722Z,7.26
2019-01-12T12:07:07.704Z,7.25
2019-01-12T12:08:07.679Z,7.28
2019-01-12T12:09:07.659Z,7.32
2019-01-12T12:10:07.636Z,7.33
2019-01-12T12:11:07.619Z,7.31
2019-01-12T12:12:07.586Z,7.36
2019-01-12T12:13:07.558Z,7.50
2019-01-12T12:14:07.530Z,7.44
2019-01-12T12:15:07.515Z,7.32
2019-01-12T12:16:07.623Z,7.31
2019-01-12T12:17:07.456Z,7.28
2019-01-12T12:18:07.433Z,7.26
2019-01-12T12:19:07.423Z,7.28
2019-01-12T12:20:07.386Z,7.21
2019-01-12T12:21:07.368Z,7.22
2019-01-12T12:22:07.340Z,7.26
2019-01-12T12:23:07.316Z,7.25
2019-01-12T12:24:07.301Z,7.25
2019-01-12T12:25:07.266Z,7.23
2019-01-12T12:26:07.245Z,7.25
2019-01-12T12:27:07.217Z,7.25
2019-01-12T12:28:07.205Z,7.29
2019-01-12T12:29:07.184Z,7.44
2019-01-12T12:30:07.147Z,7.39
2019-01-12T12:31:07.128Z,7.43
2019-01-12T12:32:07.119Z,7.28
2019-01-12T12:33:07.077Z,7.29
2019-01-12T12:34:07.053Z,7.25
2019-01-12T12:35:07.034Z,7.33
2019-01-12T12:36:07.021Z,7.29
2019-01-12T12:37:06.991Z,7.31
2019-01-12T12:38:06.954Z,7.25
2019-01-12T12:39:07.036Z,7.22
2019-01-12T12:40:06.927Z,7.28
2019-01-12T12:41:06.883Z,7.25
2019-01-12T12:42:06.859Z,7.28
2019-01-12T12:43:06.846Z,7.21
2019-01-12T12:44:06.819Z,7.15
2019-01-12T12:45:06.798Z,7.25
2019-01-12T12:46:06.764Z,7.19
2019-01-12T12:47:06.741Z,7.31
2019-01-12T12:48:06.717Z,7.18
2019-01-12T12:49:06.693Z,7.21
2019-01-12T12:50:06.678Z,7.19
2019-01-12T12:51:06.651Z,7.25
2019-01-12T12:52:06.629Z,7.21
2019-01-12T12:53:06.597Z,7.19
2019-01-12T12:54:06.580Z,7.22
2019-01-12T12:55:06.550Z,7.22
2019-01-12T12:56:06.528Z,7.22
2019-01-12T12:57:06.502Z,7.28
2019-01-12T12:58:06.490Z,7.33
2019-01-12T12:59:06.453Z,7.25
2019-01-12T13:00:06.433Z,7.29
2019-01-12T13:01:06.413Z,7.23
2019-01-12T13:02:06.386Z,7.18
2019-01-12T13:03:06.361Z,7.18
2019-01-12T13:04:06.334Z,7.26
2019-01-12T13:05:06.308Z,7.22
2019-01-12T13:06:06.288Z,7.22
2019-01-12T13:07:06.261Z,7.26
2019-01-12T13:08:06.262Z,7.28
2019-01-12T13:09:06.223Z,7.32
2019-01-12T13:10:06.198Z,7.26
2019-01-12T13:11:06.179Z,7.21
2019-01-12T13:12:06.150Z,7.28
2019-01-12T13:13:06.126Z,7.26
2019-01-12T13:14:06.095Z,7.31
2019-01-12T13:15:06.071Z,7.25
2019-01-12T13:16:06.054Z,7.26
2019-01-12T13:17:06.028Z,7.33
2019-01-12T13:18:06.010Z,7.25